Time;durP1;ratioP1;P1;durP2;ratioP2;P2;SDS_P1;SDS_P2;PMS_P1;PMS_P2;Temp;Humidity;BMP_temperature;BMP_pressure;BME280_temperature;BME280_humidity;BME280_pressure;Samples;Min_cycle;Max_cycle;Signal;HPM_P1;HPM_P2
2021/04/23 00:04:05;;;;;;;;;;;5.40;99.90;;;;;;10549063;23;19933;-87
2021/04/23 00:09:17;;;;;;;;;;;3.40;99.90;;;;;;10503135;28;19924;-87
2021/04/23 00:14:20;;;;;;;;;;;3.30;99.90;;;;;;10504247;28;20282;-87
2021/04/23 00:19:22;;;;;;;;;;;3.30;99.90;;;;;;10503305;28;19924;-87
2021/04/23 00:24:24;;;;;;;;;;;4.50;99.90;;;;;;10462225;28;19925;-87
2021/04/23 00:29:26;;;;;;;;;;;3.30;99.90;;;;;;10461579;28;19935;-87
2021/04/23 00:34:27;;;;;;;;;;;3.10;99.90;;;;;;10444819;28;20367;-87
2021/04/23 00:39:29;;;;;;;;;;;3.10;99.90;;;;;;10445467;28;20265;-87
2021/04/23 00:44:30;;;;;;;;;;;2.90;99.90;;;;;;10487008;28;20019;-87
2021/04/23 00:49:32;;;;;;;;;;;3.10;99.90;;;;;;10464769;28;19928;-87
2021/04/23 00:54:33;;;;;;;;;;;3.00;99.90;;;;;;10500060;28;20007;-85
2021/04/23 00:59:35;;;;;;;;;;;5.60;99.90;;;;;;10478684;28;20034;-87
2021/04/23 01:04:36;;;;;;;;;;;4.00;99.90;;;;;;10442883;28;19987;-87
2021/04/23 01:09:38;;;;;;;;;;;2.80;99.90;;;;;;10460583;28;20314;-87
2021/04/23 01:14:40;;;;;;;;;;;3.00;99.90;;;;;;10461036;28;19931;-87
2021/04/23 01:19:41;;;;;;;;;;;2.60;99.90;;;;;;10460804;28;19925;-87
2021/04/23 01:24:44;;;;;;;;;;;2.60;99.90;;;;;;10459987;28;19931;-87
2021/04/23 01:29:45;;;;;;;;;;;4.20;99.90;;;;;;10443058;28;19929;-87
2021/04/23 01:34:47;;;;;;;;;;;2.80;99.90;;;;;;10460266;28;19925;-87
2021/04/23 01:39:48;;;;;;;;;;;2.50;99.90;;;;;;10459120;28;20371;-87
2021/04/23 01:44:50;;;;;;;;;;;3.90;99.90;;;;;;10459983;28;19924;-87
2021/04/23 01:49:51;;;;;;;;;;;4.50;99.90;;;;;;10441966;28;19924;-87
2021/04/23 01:54:53;;;;;;;;;;;2.20;99.90;;;;;;10441617;28;19931;-87
2021/04/23 01:59:54;;;;;;;;;;;3.40;99.90;;;;;;10442114;28;19925;-87
2021/04/23 02:04:56;;;;;;;;;;;1.90;99.90;;;;;;10440947;28;19931;-87
2021/04/23 02:09:58;;;;;;;;;;;2.20;99.90;;;;;;10440584;28;19924;-87
2021/04/23 02:15:01;;;;;;;;;;;2.30;99.90;;;;;;10423650;28;19932;-87
2021/04/23 02:20:06;;;;;;;;;;;2.10;99.90;;;;;;10440222;28;20291;-87
2021/04/23 02:25:08;;;;;;;;;;;3.10;99.90;;;;;;10440071;28;20449;-87
2021/04/23 02:30:16;;;;;;;;;;;2.20;99.90;;;;;;10441078;28;20016;-87
2021/04/23 02:35:18;;;;;;;;;;;2.20;99.90;;;;;;10440412;28;19931;-87
2021/04/23 02:40:20;;;;;;;;;;;3.30;99.90;;;;;;10456751;28;19924;-87
2021/04/23 02:45:25;;;;;;;;;;;2.30;99.90;;;;;;10457677;28;19931;-87
2021/04/23 02:50:28;;;;;;;;;;;2.20;99.90;;;;;;10440033;28;19924;-87
2021/04/23 02:55:30;;;;;;;;;;;3.10;99.90;;;;;;10480936;28;19925;-87
2021/04/23 03:00:32;;;;;;;;;;;2.30;99.90;;;;;;10480784;28;19932;-87
2021/04/23 03:05:34;;;;;;;;;;;2.10;99.90;;;;;;10497188;28;19925;-87
2021/04/23 03:10:37;;;;;;;;;;;2.30;99.90;;;;;;10497224;28;19924;-87
2021/04/23 03:15:39;;;;;;;;;;;2.90;99.90;;;;;;10485059;28;19932;-87
2021/04/23 03:20:40;;;;;;;;;;;4.50;99.90;;;;;;10438955;28;20300;-87
2021/04/23 03:25:42;;;;;;;;;;;1.30;99.90;;;;;;10437136;28;19968;-87
2021/04/23 03:30:44;;;;;;;;;;;3.30;99.90;;;;;;10463331;28;19928;-87
2021/04/23 03:35:48;;;;;;;;;;;3.60;99.90;;;;;;10497400;28;20007;-87
2021/04/23 03:40:54;;;;;;;;;;;1.80;99.90;;;;;;10474823;28;19925;-86
2021/04/23 03:45:55;;;;;;;;;;;2.00;99.90;;;;;;10491005;28;19947;-87
2021/04/23 03:50:57;;;;;;;;;;;2.00;99.90;;;;;;10461079;28;19928;-87
2021/04/23 03:55:59;;;;;;;;;;;3.40;99.90;;;;;;10438783;28;19925;-87
2021/04/23 04:01:04;;;;;;;;;;;1.60;99.90;;;;;;10455729;28;20299;-87
2021/04/23 04:06:06;;;;;;;;;;;2.10;99.90;;;;;;10459377;28;20389;-86
2021/04/23 04:11:07;;;;;;;;;;;1.40;99.90;;;;;;10461309;28;19932;-86
2021/04/23 04:16:08;;;;;;;;;;;1.20;99.90;;;;;;10462711;28;20290;-86
2021/04/23 04:21:10;;;;;;;;;;;1.50;99.90;;;;;;10445658;28;19967;-86
2021/04/23 04:26:12;;;;;;;;;;;0.00;99.90;;;;;;10444789;28;19925;-86
2021/04/23 04:31:13;;;;;;;;;;;3.00;99.90;;;;;;10461089;28;19955;-86
2021/04/23 04:36:23;;;;;;;;;;;1.40;99.90;;;;;;10462545;28;19932;-86
2021/04/23 04:41:25;;;;;;;;;;;1.60;99.90;;;;;;10485030;28;19928;-87
2021/04/23 04:46:27;;;;;;;;;;;1.90;99.90;;;;;;10502905;28;20025;-86
2021/04/23 04:51:28;;;;;;;;;;;1.60;99.90;;;;;;10501618;28;19925;-87
2021/04/23 04:56:30;;;;;;;;;;;1.70;99.90;;;;;;10502021;28;19976;-86
2021/04/23 05:01:32;;;;;;;;;;;1.90;99.90;;;;;;10473676;28;19984;-86
2021/04/23 05:06:33;;;;;;;;;;;4.00;99.90;;;;;;10443105;28;19994;-86
2021/04/23 05:11:34;;;;;;;;;;;2.50;99.90;;;;;;10442814;28;19924;-88
2021/04/23 05:16:36;;;;;;;;;;;2.40;99.90;;;;;;10442266;28;20012;-87
2021/04/23 05:21:37;;;;;;;;;;;2.60;99.90;;;;;;10458963;28;20625;-86
2021/04/23 05:26:39;;;;;;;;;;;3.00;99.90;;;;;;10442907;28;19924;-86
2021/04/23 05:31:40;;;;;;;;;;;3.30;99.90;;;;;;10460432;28;19925;-86
2021/04/23 05:36:45;;;;;;;;;;;3.50;99.90;;;;;;10442227;28;19932;-87
2021/04/23 05:41:46;;;;;;;;;;;5.30;99.90;;;;;;10460948;28;19924;-87
2021/04/23 05:46:48;;;;;;;;;;;4.10;99.90;;;;;;10440837;28;19935;-87
2021/04/23 05:51:49;;;;;;;;;;;4.30;99.90;;;;;;10480652;28;20287;-87
2021/04/23 05:56:51;;;;;;;;;;;4.60;99.90;;;;;;10497660;28;19931;-87
2021/04/23 06:01:52;;;;;;;;;;;4.80;99.90;;;;;;10466984;28;19929;-87
2021/04/23 06:06:53;;;;;;;;;;;4.80;99.90;;;;;;10384188;22;19996;-87
2021/04/23 06:11:55;;;;;;;;;;;5.40;99.90;;;;;;10328709;28;20307;-87
2021/04/23 06:16:57;;;;;;;;;;;5.60;99.90;;;;;;10330325;28;19937;-87
2021/04/23 06:22:00;;;;;;;;;;;5.90;99.90;;;;;;10331178;28;19925;-87
2021/04/23 06:27:01;;;;;;;;;;;6.60;99.90;;;;;;10311712;28;20357;-87
2021/04/23 06:32:03;;;;;;;;;;;6.40;99.90;;;;;;10328814;28;20372;-87
2021/04/23 06:37:04;;;;;;;;;;;7.10;99.90;;;;;;10328402;28;19964;-86
2021/04/23 06:42:06;;;;;;;;;;;7.20;99.90;;;;;;10328106;28;19930;-86
2021/04/23 06:47:07;;;;;;;;;;;7.60;99.90;;;;;;10328060;28;20292;-86
2021/04/23 06:52:09;;;;;;;;;;;7.60;99.90;;;;;;10312304;28;19932;-87
2021/04/23 06:57:10;;;;;;;;;;;7.70;99.90;;;;;;10322851;28;20013;-87
2021/04/23 07:02:11;;;;;;;;;;;7.60;99.90;;;;;;10371239;28;19927;-87
2021/04/23 07:07:12;;;;;;;;;;;9.30;99.90;;;;;;10354708;28;19933;-87
2021/04/23 07:12:14;;;;;;;;;;;8.90;99.90;;;;;;10353888;28;19926;-87
2021/04/23 07:17:15;;;;;;;;;;;9.30;99.90;;;;;;10354736;28;19932;-86
2021/04/23 07:22:17;;;;;;;;;;;8.60;99.90;;;;;;10287117;28;20025;-87
2021/04/23 07:27:19;;;;;;;;;;;9.00;99.90;;;;;;10371010;28;19926;-87
2021/04/23 07:32:20;;;;;;;;;;;9.10;99.90;;;;;;10391366;28;19979;-87
2021/04/23 07:37:21;;;;;;;;;;;8.20;99.90;;;;;;10326506;28;20331;-87
2021/04/23 07:42:23;;;;;;;;;;;8.70;99.90;;;;;;10317341;28;19926;-86
2021/04/23 07:47:24;;;;;;;;;;;8.50;99.90;;;;;;10333853;28;19926;-86
2021/04/23 07:52:27;;;;;;;;;;;8.30;99.90;;;;;;10317770;28;19983;-86
2021/04/23 07:57:29;;;;;;;;;;;8.40;99.90;;;;;;10325939;28;20016;-86
2021/04/23 08:02:30;;;;;;;;;;;8.90;99.90;;;;;;10376738;28;20315;-86
2021/04/23 08:07:32;;;;;;;;;;;11.10;99.90;;;;;;10376944;28;20361;-86
2021/04/23 08:12:33;;;;;;;;;;;9.70;97.50;;;;;;10294060;28;19926;-86
2021/04/23 08:17:35;;;;;;;;;;;9.60;98.90;;;;;;10389983;28;20289;-86
2021/04/23 08:22:36;;;;;;;;;;;9.40;98.80;;;;;;10316757;28;19930;-86
2021/04/23 08:27:38;;;;;;;;;;;9.40;99.50;;;;;;10333888;28;19933;-86
2021/04/23 08:32:39;;;;;;;;;;;9.50;99.90;;;;;;10331713;28;20388;-86
2021/04/23 08:37:41;;;;;;;;;;;9.80;99.30;;;;;;10329146;28;19957;-86
2021/04/23 08:42:43;;;;;;;;;;;10.70;97.20;;;;;;10331462;28;20273;-86
2021/04/23 08:47:45;;;;;;;;;;;10.30;97.20;;;;;;10332196;28;19926;-86
2021/04/23 08:52:52;;;;;;;;;;;11.20;95.00;;;;;;10331705;28;19925;-86
2021/04/23 08:57:53;;;;;;;;;;;10.80;96.10;;;;;;10332240;28;19926;-86
2021/04/23 09:02:55;;;;;;;;;;;10.10;96.40;;;;;;10330833;28;19948;-86
2021/04/23 09:08:00;;;;;;;;;;;10.20;97.80;;;;;;10279023;28;19935;-86
2021/04/23 09:13:12;;;;;;;;;;;12.30;94.80;;;;;;10252830;28;20005;-86
2021/04/23 09:18:21;;;;;;;;;;;13.50;93.00;;;;;;10251421;28;20460;-86
2021/04/23 09:23:22;;;;;;;;;;;13.90;92.90;;;;;;10333661;28;19931;-86
2021/04/23 09:28:34;;;;;;;;;;;12.10;94.80;;;;;;10315686;28;19933;-86
2021/04/23 09:33:48;;;;;;;;;;;12.40;90.20;;;;;;10251724;28;19938;-86
2021/04/23 09:39:05;;;;;;;;;;;12.90;91.90;;;;;;10332987;28;19926;-86
2021/04/23 09:44:24;;;;;;;;;;;13.50;83.90;;;;;;10251356;29;19930;-86
2021/04/23 09:49:26;;;;;;;;;;;13.50;87.50;;;;;;10250894;28;19933;-86
2021/04/23 09:54:27;;;;;;;;;;;12.70;86.60;;;;;;10250025;29;19927;-86
2021/04/23 09:59:30;;;;;;;;;;;13.10;92.80;;;;;;10255459;28;19933;-85
2021/04/23 10:04:32;;;;;;;;;;;14.80;77.80;;;;;;10357639;28;19924;-85
2021/04/23 10:09:35;;;;;;;;;;;15.60;80.10;;;;;;10501329;28;19924;-85
2021/04/23 10:14:36;;;;;;;;;;;15.00;77.90;;;;;;10498297;28;20273;-86
2021/04/23 10:19:38;;;;;;;;;;;14.50;74.60;;;;;;10499941;28;20010;-86
2021/04/23 10:24:40;;;;;;;;;;;14.20;71.80;;;;;;10499825;28;19924;-85
2021/04/23 10:29:46;;;;;;;;;;;15.50;75.90;;;;;;10481799;28;20380;-85
2021/04/23 10:34:47;;;;;;;;;;;15.60;72.80;;;;;;10497667;28;20742;-85
2021/04/23 10:39:49;;;;;;;;;;;14.50;64.90;;;;;;10497022;28;20353;-85
2021/04/23 10:44:52;;;;;;;;;;;15.20;69.00;;;;;;10497455;28;20389;-86
2021/04/23 10:50:05;;;;;;;;;;;15.90;71.00;;;;;;10478788;28;20015;-86
2021/04/23 10:55:07;;;;;;;;;;;15.70;64.40;;;;;;10495924;28;19939;-86
2021/04/23 11:00:27;;;;;;;;;;;15.30;65.40;;;;;;10478599;28;20399;-85
2021/04/23 11:05:40;;;;;;;;;;;15.60;67.70;;;;;;10439594;28;19981;-86
2021/04/23 11:10:56;;;;;;;;;;;16.50;68.30;;;;;;10323749;28;19925;-86
2021/04/23 11:16:16;;;;;;;;;;;16.50;67.20;;;;;;10334277;28;19971;-85
2021/04/23 11:21:24;;;;;;;;;;;15.50;69.30;;;;;;10333220;28;20012;-86
2021/04/23 11:26:45;;;;;;;;;;;15.10;71.30;;;;;;10315765;28;20016;-86
2021/04/23 11:32:05;;;;;;;;;;;15.60;69.10;;;;;;10332639;28;20304;-85
2021/04/23 11:37:12;;;;;;;;;;;15.80;67.00;;;;;;10332500;28;19969;-85
2021/04/23 11:42:16;;;;;;;;;;;16.90;66.70;;;;;;10331444;28;19936;-86
2021/04/23 11:47:27;;;;;;;;;;;16.40;62.70;;;;;;10308335;28;19926;-85
2021/04/23 11:52:29;;;;;;;;;;;15.60;67.60;;;;;;10308584;28;19926;-85
2021/04/23 11:57:31;;;;;;;;;;;;;;;;;;10275152;28;19930;-86
2021/04/23 12:02:43;;;;;;;;;;;16.00;62.00;;;;;;10307566;28;20013;-85
2021/04/23 12:07:45;;;;;;;;;;;15.50;66.90;;;;;;10337779;23;19926;-85
2021/04/23 12:12:50;;;;;;;;;;;15.30;65.70;;;;;;10332908;28;19926;-86
2021/04/23 12:17:52;;;;;;;;;;;15.00;65.60;;;;;;10334230;28;19926;-86
2021/04/23 12:22:53;;;;;;;;;;;14.10;67.30;;;;;;10432901;28;20019;-85
2021/04/23 12:28:14;;;;;;;;;;;15.10;72.80;;;;;;10358820;28;19926;-85
2021/04/23 12:33:17;;;;;;;;;;;15.10;70.90;;;;;;10312129;28;19970;-85
2021/04/23 12:38:35;;;;;;;;;;;15.20;69.90;;;;;;10391112;28;19926;-85
2021/04/23 12:43:38;;;;;;;;;;;14.50;65.70;;;;;;10406001;28;20300;-86
2021/04/23 12:48:40;;;;;;;;;;;15.50;66.90;;;;;;10333033;28;19933;-86
2021/04/23 12:53:41;;;;;;;;;;;15.10;67.50;;;;;;10315509;28;19940;-86
2021/04/23 12:58:44;;;;;;;;;;;14.50;66.50;;;;;;10314484;28;19930;-85
2021/04/23 13:04:05;;;;;;;;;;;14.80;70.40;;;;;;10315611;28;19925;-85
2021/04/23 13:09:08;;;;;;;;;;;14.40;70.90;;;;;;10315230;28;19926;-85
2021/04/23 13:14:18;;;;;;;;;;;14.10;79.00;;;;;;10331706;28;20005;-85
2021/04/23 13:19:34;;;;;;;;;;;14.70;75.20;;;;;;10332224;28;19926;-86
2021/04/23 13:24:35;;;;;;;;;;;14.60;73.00;;;;;;10324660;28;20009;-85
2021/04/23 13:29:37;;;;;;;;;;;13.90;73.60;;;;;;10326528;28;19930;-86
2021/04/23 13:34:50;;;;;;;;;;;14.30;76.40;;;;;;10330447;28;19925;-85
2021/04/23 13:40:08;;;;;;;;;;;13.90;76.00;;;;;;10329921;28;20257;-85
2021/04/23 13:45:13;;;;;;;;;;;13.60;79.10;;;;;;10313129;28;19925;-85
2021/04/23 13:50:15;;;;;;;;;;;13.80;80.50;;;;;;10331153;28;19926;-86
2021/04/23 13:55:17;;;;;;;;;;;15.10;67.80;;;;;;10330984;28;19926;-86
2021/04/23 14:00:18;;;;;;;;;;;15.90;63.40;;;;;;10313670;28;19936;-85
2021/04/23 14:05:19;;;;;;;;;;;15.10;64.60;;;;;;10312843;28;19933;-86
2021/04/23 14:10:20;;;;;;;;;;;15.60;68.40;;;;;;10329865;28;20395;-85
2021/04/23 14:15:22;;;;;;;;;;;16.30;67.90;;;;;;10313248;28;19969;-86
2021/04/23 14:20:23;;;;;;;;;;;16.20;62.00;;;;;;10329059;28;19932;-85
2021/04/23 14:25:25;;;;;;;;;;;15.90;61.80;;;;;;10312904;28;19926;-85
2021/04/23 14:30:26;;;;;;;;;;;15.60;63.10;;;;;;10329025;28;19926;-85
2021/04/23 14:35:27;;;;;;;;;;;15.90;59.70;;;;;;10329849;28;19929;-86
2021/04/23 14:40:29;;;;;;;;;;;16.60;61.60;;;;;;10329224;28;19926;-86
2021/04/23 14:45:30;;;;;;;;;;;16.00;63.50;;;;;;10328081;28;19940;-86
2021/04/23 14:50:31;;;;;;;;;;;15.80;66.40;;;;;;10329074;28;19925;-87
2021/04/23 14:55:32;;;;;;;;;;;15.50;65.40;;;;;;10312087;28;19926;-86
2021/04/23 15:00:34;;;;;;;;;;;15.70;66.50;;;;;;10326970;28;19932;-86
2021/04/23 15:05:36;;;;;;;;;;;15.60;63.80;;;;;;10295918;28;19930;-86
2021/04/23 15:10:38;;;;;;;;;;;15.40;64.90;;;;;;10288727;28;19930;-86
2021/04/23 15:15:40;;;;;;;;;;;15.70;67.70;;;;;;10290776;28;20270;-85
2021/04/23 15:20:42;;;;;;;;;;;16.70;65.40;;;;;;10290388;28;19926;-85
2021/04/23 15:25:44;;;;;;;;;;;15.60;67.10;;;;;;10442448;28;19924;-86
2021/04/23 15:30:46;;;;;;;;;;;15.40;64.00;;;;;;10497849;28;19925;-86
2021/04/23 15:35:48;;;;;;;;;;;15.30;65.00;;;;;;10496468;28;20379;-86
2021/04/23 15:40:51;;;;;;;;;;;15.50;65.40;;;;;;10498167;28;19971;-86
2021/04/23 15:45:53;;;;;;;;;;;15.30;67.80;;;;;;10479034;28;19925;-86
2021/04/23 15:50:57;;;;;;;;;;;15.50;66.50;;;;;;10496329;28;19931;-85
2021/04/23 15:55:59;;;;;;;;;;;15.00;65.60;;;;;;10323598;28;20001;-85
2021/04/23 16:01:01;;;;;;;;;;;15.10;69.20;;;;;;10289120;28;20288;-86
2021/04/23 16:06:02;;;;;;;;;;;15.00;68.00;;;;;;10361007;28;19926;-85
2021/04/23 16:11:04;;;;;;;;;;;14.50;65.40;;;;;;10294978;28;19930;-86
2021/04/23 16:16:05;;;;;;;;;;;13.30;66.80;;;;;;10293420;28;20365;-86
2021/04/23 16:21:06;;;;;;;;;;;14.60;69.60;;;;;;10293293;28;20335;-86
2021/04/23 16:26:08;;;;;;;;;;;14.40;67.90;;;;;;10292482;28;19926;-86
2021/04/23 16:31:10;;;;;;;;;;;14.40;68.70;;;;;;10292413;28;20361;-86
2021/04/23 16:36:11;;;;;;;;;;;14.30;68.40;;;;;;10361700;28;19926;-86
2021/04/23 16:41:12;;;;;;;;;;;14.10;67.30;;;;;;10291979;28;19930;-86
2021/04/23 16:46:13;;;;;;;;;;;14.00;68.80;;;;;;10291176;28;20377;-87
2021/04/23 16:51:15;;;;;;;;;;;14.10;67.40;;;;;;10377402;28;19924;-87
2021/04/23 16:56:16;;;;;;;;;;;13.60;68.30;;;;;;10349176;28;20426;-87
2021/04/23 17:01:18;;;;;;;;;;;13.70;71.20;;;;;;10315567;28;19936;-86
2021/04/23 17:06:19;;;;;;;;;;;13.60;73.00;;;;;;10331782;28;20433;-86
2021/04/23 17:11:20;;;;;;;;;;;13.50;73.30;;;;;;10332299;28;19930;-86
2021/04/23 17:16:21;;;;;;;;;;;13.50;71.40;;;;;;10314143;28;19926;-86
2021/04/23 17:21:23;;;;;;;;;;;13.40;73.50;;;;;;10330487;28;19930;-86
2021/04/23 17:26:24;;;;;;;;;;;13.00;72.20;;;;;;10313845;28;19933;-86
2021/04/23 17:31:26;;;;;;;;;;;12.90;73.20;;;;;;10331628;28;19926;-86
2021/04/23 17:36:28;;;;;;;;;;;12.90;78.70;;;;;;10331042;28;20442;-86
2021/04/23 17:41:29;;;;;;;;;;;12.70;77.80;;;;;;10331331;28;19926;-85
2021/04/23 17:46:30;;;;;;;;;;;12.40;83.20;;;;;;10306615;28;19927;-86
2021/04/23 17:51:32;;;;;;;;;;;12.40;81.00;;;;;;10329139;28;20404;-86
2021/04/23 17:56:33;;;;;;;;;;;12.20;84.20;;;;;;10331111;28;19949;-86
2021/04/23 18:01:34;;;;;;;;;;;12.10;85.40;;;;;;10329795;28;19932;-86
2021/04/23 18:06:36;;;;;;;;;;;11.80;88.10;;;;;;10458817;22;19973;-86
2021/04/23 18:11:37;;;;;;;;;;;11.90;89.50;;;;;;10584536;28;20019;-86
2021/04/23 18:16:40;;;;;;;;;;;11.70;91.20;;;;;;10565888;28;19931;-86
2021/04/23 18:21:41;;;;;;;;;;;11.30;91.30;;;;;;10581001;28;19924;-86
2021/04/23 18:26:43;;;;;;;;;;;11.10;93.20;;;;;;10582000;28;19947;-86
2021/04/23 18:31:44;;;;;;;;;;;11.00;94.90;;;;;;10582647;28;19977;-88
2021/04/23 18:36:46;;;;;;;;;;;10.90;96.60;;;;;;10565642;28;19924;-86
2021/04/23 18:41:48;;;;;;;;;;;10.60;96.50;;;;;;10565426;28;19930;-86
2021/04/23 18:46:49;;;;;;;;;;;10.40;97.00;;;;;;10564687;28;20375;-86
2021/04/23 18:51:51;;;;;;;;;;;10.60;97.10;;;;;;10565253;28;19930;-87
2021/04/23 18:56:52;;;;;;;;;;;10.30;97.40;;;;;;10565005;28;19946;-86
2021/04/23 19:01:53;;;;;;;;;;;10.00;96.60;;;;;;10581771;28;19963;-87
2021/04/23 19:06:55;;;;;;;;;;;9.90;97.70;;;;;;10580948;28;19996;-86
2021/04/23 19:11:56;;;;;;;;;;;9.80;98.60;;;;;;10564884;28;19923;-86
2021/04/23 19:16:58;;;;;;;;;;;11.00;99.30;;;;;;10564515;28;20026;-86
2021/04/23 19:21:59;;;;;;;;;;;9.40;99.50;;;;;;10580528;28;19932;-86
2021/04/23 19:27:04;;;;;;;;;;;9.40;99.90;;;;;;10563397;28;20401;-87
2021/04/23 19:32:05;;;;;;;;;;;9.10;99.90;;;;;;10582265;28;19923;-86
2021/04/23 19:37:07;;;;;;;;;;;8.80;99.90;;;;;;10587150;28;19931;-86
2021/04/23 19:42:08;;;;;;;;;;;8.60;99.90;;;;;;10589471;28;20018;-86
2021/04/23 19:47:10;;;;;;;;;;;8.50;99.90;;;;;;10572028;28;19930;-86
2021/04/23 19:52:12;;;;;;;;;;;8.10;99.90;;;;;;10571613;28;20328;-86
2021/04/23 19:57:14;;;;;;;;;;;8.60;99.90;;;;;;10588670;28;19924;-86
2021/04/23 20:02:15;;;;;;;;;;;8.10;99.90;;;;;;10589058;28;20408;-86
2021/04/23 20:07:16;;;;;;;;;;;8.30;99.90;;;;;;10587515;28;19927;-87
2021/04/23 20:12:18;;;;;;;;;;;9.20;99.90;;;;;;10587275;28;19930;-86
2021/04/23 20:17:22;;;;;;;;;;;7.90;99.90;;;;;;10571145;28;19928;-86
2021/04/23 20:22:24;;;;;;;;;;;8.10;99.90;;;;;;10568777;28;19931;-87
2021/04/23 20:27:28;;;;;;;;;;;8.10;99.90;;;;;;10586571;28;19923;-87
2021/04/23 20:32:30;;;;;;;;;;;8.20;99.90;;;;;;10585666;28;19936;-87
2021/04/23 20:37:32;;;;;;;;;;;8.20;99.90;;;;;;10587947;28;19931;-87
2021/04/23 20:42:33;;;;;;;;;;;8.00;99.90;;;;;;10587538;28;19923;-87
2021/04/23 20:47:35;;;;;;;;;;;8.40;99.90;;;;;;10586246;28;19924;-87
2021/04/23 20:52:36;;;;;;;;;;;7.70;99.90;;;;;;10587233;28;20279;-87
2021/04/23 20:57:37;;;;;;;;;;;7.70;99.90;;;;;;10587044;28;20263;-88
2021/04/23 21:02:39;;;;;;;;;;;8.50;99.90;;;;;;10586236;28;19957;-87
2021/04/23 21:07:41;;;;;;;;;;;7.70;99.90;;;;;;10579424;28;19947;-87
2021/04/23 21:12:44;;;;;;;;;;;7.70;99.90;;;;;;10544864;28;19924;-88
2021/04/23 21:17:46;;;;;;;;;;;7.70;99.90;;;;;;10544324;28;20298;-87
2021/04/23 21:22:49;;;;;;;;;;;7.90;99.90;;;;;;10579291;28;19981;-88
2021/04/23 21:27:50;;;;;;;;;;;8.10;99.90;;;;;;10584697;28;19931;-87
2021/04/23 21:32:52;;;;;;;;;;;7.50;99.90;;;;;;10583856;28;19924;-87
2021/04/23 21:37:53;;;;;;;;;;;7.30;99.90;;;;;;10584483;28;19924;-87
2021/04/23 21:42:54;;;;;;;;;;;7.40;99.90;;;;;;10584252;28;19923;-87
2021/04/23 21:47:55;;;;;;;;;;;7.30;99.90;;;;;;10620588;27;19931;-87
2021/04/23 21:52:57;;;;;;;;;;;7.50;99.90;;;;;;10608651;27;19924;-87
2021/04/23 21:57:58;;;;;;;;;;;8.80;99.90;;;;;;10589610;27;19931;-87
2021/04/23 22:02:59;;;;;;;;;;;7.50;99.90;;;;;;10582355;28;20386;-88
2021/04/23 22:08:01;;;;;;;;;;;6.80;99.90;;;;;;10582310;28;19930;-87
2021/04/23 22:13:02;;;;;;;;;;;7.90;99.90;;;;;;10582866;28;19927;-88
2021/04/23 22:18:04;;;;;;;;;;;6.60;99.90;;;;;;10582736;28;19930;-88
2021/04/23 22:23:05;;;;;;;;;;;6.50;99.90;;;;;;10582534;28;19924;-87
2021/04/23 22:28:07;;;;;;;;;;;6.50;99.90;;;;;;10583306;28;19923;-87
2021/04/23 22:33:09;;;;;;;;;;;7.70;99.90;;;;;;10581895;28;19928;-87
2021/04/23 22:38:10;;;;;;;;;;;6.80;99.90;;;;;;10581639;28;20393;-88
2021/04/23 22:43:13;;;;;;;;;;;6.30;99.90;;;;;;10564395;28;19924;-87
2021/04/23 22:48:14;;;;;;;;;;;6.30;99.90;;;;;;10581547;28;19935;-87
2021/04/23 22:53:16;;;;;;;;;;;6.20;99.90;;;;;;10563369;28;20378;-87
2021/04/23 22:58:17;;;;;;;;;;;5.70;99.90;;;;;;10555605;28;19978;-88
2021/04/23 23:03:18;;;;;;;;;;;5.90;99.90;;;;;;10540751;28;20034;-88
2021/04/23 23:08:20;;;;;;;;;;;7.30;99.90;;;;;;10556564;28;20011;-88
2021/04/23 23:13:21;;;;;;;;;;;5.80;99.90;;;;;;10578051;28;20271;-87
2021/04/23 23:18:23;;;;;;;;;;;5.70;99.90;;;;;;10571789;28;19924;-88
2021/04/23 23:23:28;;;;;;;;;;;5.30;99.90;;;;;;10557285;28;20027;-87
2021/04/23 23:28:29;;;;;;;;;;;5.50;99.90;;;;;;10589481;28;19927;-87
2021/04/23 23:33:31;;;;;;;;;;;5.10;99.90;;;;;;10572359;28;19924;-88
2021/04/23 23:38:32;;;;;;;;;;;5.20;99.90;;;;;;10588495;28;20393;-88
2021/04/23 23:43:33;;;;;;;;;;;5.20;99.90;;;;;;10589796;28;19924;-87
2021/04/23 23:48:36;;;;;;;;;;;5.60;99.90;;;;;;10601298;28;19924;-86
2021/04/23 23:53:37;;;;;;;;;;;5.60;99.90;;;;;;10611558;28;19969;-87
2021/04/23 23:58:38;;;;;;;;;;;5.90;99.90;;;;;;10588998;28;19923;-88
